Terminal Aerodrome Forecast
Issued by NWS

Home | Current Version | Previous Version | Graphics & Text | Print | Product List | Glossary Off
Versions: 1 2 3 4 5 6 7 8 9 10 11 12 13 14 15 16 17 18 19 20 21 22 23 24 25 26

000
FTUS41 KCLE 311308 AAB
TAFFDY
TAF AMD
KFDY 311308Z 3113/0112 24004KT 6SM BR BKN008 OVC080
      TEMPO 3113/3115 3SM BR BKN003 OVC009
     FM311500 26006KT P6SM VCSH BKN015 OVC035
      TEMPO 3115/3117 BKN019 OVC030
     FM311900 33008KT P6SM VCTS SCT030CB OVC035
     FM312300 02010KT P6SM SCT030 OVC035
      TEMPO 3123/0102 BKN015 OVC030
     FM010200 03010KT P6SM OVC035
     FM010600 02005KT P6SM SCT035=

USA.gov is the U.S. government's official web portal to all federal, state and local government web resources and services.